createdAt,value
2022-10-02T00:04:01.588Z,13.35
2022-10-02T00:12:22.974Z,13.45
2022-10-02T00:18:08.184Z,13.55
2022-10-02T00:23:42.954Z,13.65
2022-10-02T00:29:36.372Z,13.69
2022-10-02T00:35:37.228Z,13.70
2022-10-02T00:42:06.886Z,13.61
2022-10-02T00:48:06.645Z,13.74
2022-10-02T00:50:58.640Z,13.72
2022-10-02T00:56:39.937Z,13.78
2022-10-02T01:03:01.012Z,13.85
2022-10-02T01:08:30.839Z,13.95
2022-10-02T01:14:05.416Z,14.03
2022-10-02T01:19:42.739Z,14.02
2022-10-02T01:25:19.579Z,13.94
2022-10-02T01:28:08.094Z,13.97
2022-10-02T01:33:43.192Z,14.12
2022-10-02T01:36:32.986Z,14.15
2022-10-02T01:39:21.525Z,14.23
2022-10-02T01:44:56.796Z,14.17
2022-10-02T01:50:33.943Z,14.30
2022-10-02T01:56:15.859Z,14.32
2022-10-02T02:01:58.535Z,14.32
2022-10-02T02:10:27.588Z,14.25
2022-10-02T02:16:10.835Z,14.21
2022-10-02T02:19:04.746Z,14.19
2022-10-02T02:24:44.574Z,14.33
2022-10-02T02:30:15.761Z,14.38
2022-10-02T02:35:57.474Z,14.47
2022-10-02T02:41:31.664Z,14.37
2022-10-02T02:44:22.838Z,14.38
2022-10-02T02:47:14.826Z,14.45
2022-10-02T02:50:05.767Z,14.53
2022-10-02T02:55:45.144Z,14.53
2022-10-02T03:04:02.289Z,14.50
2022-10-02T03:12:23.088Z,14.52
2022-10-02T03:15:28.466Z,14.46
2022-10-02T03:21:21.928Z,14.43
2022-10-02T03:24:14.669Z,14.43
2022-10-02T03:30:06.314Z,14.46
2022-10-02T03:35:46.789Z,14.46
2022-10-02T03:41:21.348Z,14.30
2022-10-02T03:49:47.139Z,14.39
2022-10-02T03:58:18.895Z,14.47
2022-10-02T04:06:45.457Z,14.61
2022-10-02T04:12:28.393Z,14.74
2022-10-02T04:18:11.641Z,14.81
2022-10-02T04:23:51.551Z,14.75
2022-10-02T04:29:29.470Z,14.70
2022-10-02T04:37:55.833Z,14.70
2022-10-02T04:43:37.872Z,14.67
2022-10-02T04:49:34.636Z,14.64
2022-10-02T04:55:57.074Z,14.79
2022-10-02T05:01:58.432Z,14.83
2022-10-02T05:07:59.582Z,14.86
2022-10-02T05:23:07.604Z,14.90
2022-10-02T05:33:02.627Z,14.94
2022-10-02T05:39:03.578Z,14.96
2022-10-02T05:41:54.870Z,15.00
2022-10-02T05:47:33.130Z,14.95
2022-10-02T05:53:15.682Z,15.02
2022-10-02T05:56:07.856Z,14.98
2022-10-02T06:01:44.979Z,15.06
2022-10-02T06:07:22.417Z,15.12
2022-10-02T06:15:43.177Z,15.21
2022-10-02T06:21:16.319Z,15.21
2022-10-02T06:24:09.703Z,15.18
2022-10-02T06:29:42.794Z,15.23
2022-10-02T06:35:17.122Z,15.36
2022-10-02T06:41:07.147Z,15.43
2022-10-02T06:46:55.819Z,15.59
2022-10-02T06:52:37.979Z,15.84
2022-10-02T06:55:31.640Z,15.76
2022-10-02T06:58:50.809Z,16.00
2022-10-02T07:04:42.172Z,15.94
2022-10-02T07:10:20.360Z,16.05
2022-10-02T07:20:05.437Z,16.12
2022-10-02T07:25:57.672Z,16.12
2022-10-02T07:34:34.302Z,16.22
2022-10-02T07:40:28.798Z,16.49
2022-10-02T07:52:28.840Z,16.91
2022-10-02T07:58:07.952Z,17.15
2022-10-02T08:03:51.692Z,17.26
2022-10-02T08:09:31.312Z,17.47
2022-10-02T08:15:16.359Z,17.57
2022-10-02T08:20:57.426Z,17.55
2022-10-02T08:26:44.196Z,17.83
2022-10-02T08:32:22.398Z,18.00
2022-10-02T08:35:14.544Z,17.98
2022-10-02T08:41:36.953Z,18.21
2022-10-02T08:44:49.001Z,18.19
2022-10-02T08:51:20.842Z,17.86
2022-10-02T09:00:27.065Z,17.99
2022-10-02T09:16:38.471Z,17.08
2022-10-02T09:19:35.547Z,17.00
2022-10-02T09:23:00.618Z,17.16
2022-10-02T09:29:08.146Z,17.30
2022-10-02T09:35:26.301Z,17.34
2022-10-02T09:41:34.859Z,17.21
2022-10-02T09:47:44.618Z,17.09
2022-10-02T09:54:55.627Z,16.93
2022-10-02T09:58:07.261Z,16.73
2022-10-02T10:08:02.107Z,16.55
2022-10-02T10:14:08.889Z,16.49
2022-10-02T10:20:49.832Z,16.39
2022-10-02T10:27:30.977Z,16.20
2022-10-02T10:30:28.180Z,16.18
2022-10-02T10:33:56.254Z,16.13
2022-10-02T10:40:02.617Z,15.90
2022-10-02T10:43:32.078Z,15.74
2022-10-02T10:50:08.561Z,16.14
2022-10-02T10:55:59.084Z,16.43
2022-10-02T11:05:09.994Z,17.29
2022-10-02T11:08:10.696Z,17.24
2022-10-02T11:14:00.159Z,17.05
2022-10-02T11:17:15.839Z,17.04
2022-10-02T11:20:35.671Z,17.20
2022-10-02T11:26:26.400Z,17.38
2022-10-02T11:32:47.682Z,18.07
2022-10-02T11:36:03.996Z,18.36
2022-10-02T11:42:27.683Z,18.64
2022-10-02T11:48:39.043Z,19.09
2022-10-02T11:52:08.991Z,18.89
2022-10-02T11:58:11.999Z,19.27
2022-10-02T12:04:22.447Z,19.69
2022-10-02T12:17:19.334Z,21.14
2022-10-02T12:23:31.772Z,20.75
2022-10-02T12:29:22.621Z,20.66
2022-10-02T12:40:41.704Z,20.20
2022-10-02T12:43:46.289Z,20.16
2022-10-02T12:47:20.220Z,19.94
2022-10-02T12:53:41.698Z,19.91
2022-10-02T12:57:15.361Z,19.93
2022-10-02T13:03:10.164Z,20.34
2022-10-02T13:09:17.781Z,20.12
2022-10-02T13:12:30.916Z,20.30
2022-10-02T13:21:13.635Z,20.23
2022-10-02T13:29:54.430Z,20.37
2022-10-02T13:36:03.850Z,21.05
2022-10-02T13:42:18.015Z,20.97
2022-10-02T13:45:12.802Z,21.00
2022-10-02T13:50:56.990Z,20.31
2022-10-02T13:56:51.358Z,20.18
2022-10-02T14:02:57.504Z,20.48
2022-10-02T14:05:49.493Z,20.68
2022-10-02T14:08:47.428Z,20.47
2022-10-02T14:11:43.308Z,20.54
2022-10-02T14:14:39.931Z,20.59
2022-10-02T14:17:34.631Z,20.48
2022-10-02T14:20:34.683Z,20.16
2022-10-02T14:23:45.854Z,20.11
2022-10-02T14:32:45.104Z,19.69
2022-10-02T14:36:19.446Z,19.75
2022-10-02T14:42:25.701Z,19.58
2022-10-02T14:48:15.683Z,19.45
2022-10-02T14:54:31.314Z,19.46
2022-10-02T15:00:24.479Z,19.51
2022-10-02T15:06:26.223Z,19.62
2022-10-02T15:12:16.481Z,19.22
2022-10-02T15:15:09.062Z,19.24
2022-10-02T15:18:14.457Z,19.18
2022-10-02T15:23:45.943Z,19.44
2022-10-02T15:26:40.523Z,19.46
2022-10-02T15:33:10.238Z,19.38
2022-10-02T15:39:34.538Z,19.29
2022-10-02T15:45:36.539Z,19.20
2022-10-02T15:51:46.219Z,18.79
2022-10-02T15:54:42.041Z,18.73
2022-10-02T16:00:29.924Z,18.61
2022-10-02T16:03:19.667Z,18.49
2022-10-02T16:06:12.858Z,18.46
2022-10-02T16:12:33.295Z,18.31
2022-10-02T16:15:26.112Z,18.18
2022-10-02T16:21:25.957Z,18.09
2022-10-02T16:27:25.296Z,17.88
2022-10-02T16:30:15.652Z,17.85
2022-10-02T16:33:20.640Z,17.74
2022-10-02T16:36:45.545Z,17.68
2022-10-02T16:42:26.849Z,17.73
2022-10-02T16:48:15.977Z,17.65
2022-10-02T16:56:47.632Z,17.54
2022-10-02T16:59:45.960Z,17.45
2022-10-02T17:11:07.886Z,17.34
2022-10-02T17:16:52.139Z,17.31
2022-10-02T17:22:33.331Z,17.34
2022-10-02T17:28:20.087Z,17.14
2022-10-02T17:34:25.969Z,17.05
2022-10-02T17:37:49.122Z,16.85
2022-10-02T17:40:39.553Z,16.81
2022-10-02T17:46:28.497Z,16.81
2022-10-02T17:55:31.621Z,16.79
2022-10-02T18:01:13.152Z,16.82
2022-10-02T18:04:09.666Z,16.71
2022-10-02T18:09:52.539Z,16.80
2022-10-02T18:13:05.305Z,16.79
2022-10-02T18:16:00.840Z,16.83
2022-10-02T18:19:00.148Z,16.83
2022-10-02T18:25:03.526Z,16.61
2022-10-02T18:30:58.896Z,16.41
2022-10-02T18:33:58.331Z,16.29
2022-10-02T18:39:42.477Z,16.38
2022-10-02T18:45:42.101Z,16.34
2022-10-02T18:49:05.666Z,16.31
2022-10-02T18:52:31.251Z,16.27
2022-10-02T18:55:43.472Z,16.15
2022-10-02T19:01:50.606Z,16.25
2022-10-02T19:07:49.080Z,16.41
2022-10-02T19:13:27.295Z,16.25
2022-10-02T19:19:11.987Z,16.26
2022-10-02T19:24:53.742Z,16.23
2022-10-02T19:27:45.488Z,16.18
2022-10-02T19:33:21.815Z,15.95
2022-10-02T19:39:04.975Z,15.90
2022-10-02T19:41:55.528Z,15.97
2022-10-02T19:47:38.791Z,16.03
2022-10-02T19:50:28.663Z,16.00
2022-10-02T19:56:15.975Z,16.17
2022-10-02T19:59:08.301Z,16.13
2022-10-02T20:05:07.304Z,16.15
2022-10-02T20:10:42.779Z,16.17
2022-10-02T20:16:42.177Z,15.86
2022-10-02T20:22:25.298Z,15.89
2022-10-02T20:28:03.395Z,15.46
2022-10-02T20:33:43.630Z,15.38
2022-10-02T20:39:15.109Z,15.32
2022-10-02T20:44:47.497Z,15.30
2022-10-02T20:50:58.103Z,15.23
2022-10-02T21:00:15.679Z,15.23
2022-10-02T21:03:26.327Z,15.11
2022-10-02T21:12:51.534Z,15.11
2022-10-02T21:22:19.856Z,15.17
2022-10-02T21:31:34.114Z,15.04
2022-10-02T21:37:16.436Z,15.00
2022-10-02T21:46:53.368Z,15.01
2022-10-02T21:50:20.254Z,15.05
2022-10-02T21:56:54.254Z,15.14
2022-10-02T22:03:31.489Z,15.11
2022-10-02T22:09:29.155Z,15.23
2022-10-02T22:15:16.039Z,15.22
2022-10-02T22:21:03.842Z,15.23
2022-10-02T22:26:42.448Z,14.96
2022-10-02T22:29:36.065Z,15.04
2022-10-02T22:35:50.859Z,15.04
2022-10-02T22:38:40.758Z,14.88
2022-10-02T22:41:30.938Z,14.97
2022-10-02T22:47:30.224Z,15.08
2022-10-02T22:53:13.803Z,15.01
2022-10-02T22:58:51.095Z,14.94
2022-10-02T23:04:31.172Z,14.94
2022-10-02T23:10:18.261Z,14.87
2022-10-02T23:13:12.588Z,14.84
2022-10-02T23:16:02.892Z,14.72
2022-10-02T23:21:47.580Z,14.92
2022-10-02T23:27:25.514Z,14.81
2022-10-02T23:33:11.882Z,14.77
2022-10-02T23:38:48.185Z,14.50
2022-10-02T23:44:34.239Z,14.47
2022-10-02T23:54:31.778Z,14.27
